AMX746 KORD-MMMX
Flight info
| Callsign | AMX746 |
|---|---|
| Flight time | N/A |
| Altitude | 34000 |
| Route | ACITO DCT ADELL DCT ARLYN DCT STL J101 LIT/N0472F360 J101 IAH J29 PSX J177 TAM UT100 ENAGA ENAGA3A |
| Aircraft | B738/M-SDE2E3FGHIRWXY/LB1 |
Departure
| Time | 2026-05-06 17:29 |
|---|---|
| Airport | Chicago O'Hare International Airport (KORD) |
Arrival
| Time | N/A |
|---|---|
| Airport | Mexico City Benito Juárez International Airport (MMMX) |
| Time | Latitude | Longitude | Altitude | Speed | Heading |
|---|---|---|---|---|---|
| 2026-05-06 17:04 | 41.97307 | -87.90398 | 665 ft | 0 kts | 91° |
| 2026-05-06 17:15 | 41.97308 | -87.90402 | 665 ft | 3 kts | 91° |
| 2026-05-06 17:15 | 41.97308 | -87.90435 | 665 ft | 3 kts | 91° |
| 2026-05-06 17:16 | 41.97308 | -87.90469 | 665 ft | 3 kts | 91° |
| 2026-05-06 17:16 | 41.97308 | -87.90476 | 665 ft | 0 kts | 91° |
| 2026-05-06 17:19 | 41.97308 | -87.90475 | 665 ft | 0 kts | 92° |
| 2026-05-06 17:20 | 41.97295 | -87.90446 | 665 ft | 7 kts | 143° |
| 2026-05-06 17:20 | 41.97249 | -87.90446 | 665 ft | 5 kts | 184° |
| 2026-05-06 17:20 | 41.97217 | -87.90445 | 665 ft | 4 kts | 157° |
| 2026-05-06 17:20 | 41.97179 | -87.90423 | 665 ft | 7 kts | 176° |
| 2026-05-06 17:21 | 41.97137 | -87.90394 | 665 ft | 7 kts | 94° |
| 2026-05-06 17:21 | 41.97137 | -87.90308 | 665 ft | 11 kts | 90° |
| 2026-05-06 17:21 | 41.97137 | -87.90178 | 662 ft | 16 kts | 90° |
| 2026-05-06 17:21 | 41.97138 | -87.90009 | 661 ft | 18 kts | 90° |
| 2026-05-06 17:22 | 41.97157 | -87.89830 | 659 ft | 20 kts | 68° |
| 2026-05-06 17:22 | 41.97196 | -87.89706 | 656 ft | 8 kts | 102° |
| 2026-05-06 17:22 | 41.97164 | -87.89642 | 655 ft | 7 kts | 144° |
| 2026-05-06 17:22 | 41.97125 | -87.89602 | 655 ft | 7 kts | 137° |
| 2026-05-06 17:23 | 41.97095 | -87.89537 | 655 ft | 9 kts | 113° |
| 2026-05-06 17:23 | 41.97064 | -87.89449 | 655 ft | 11 kts | 116° |
| 2026-05-06 17:23 | 41.97044 | -87.89341 | 655 ft | 13 kts | 89° |
| 2026-05-06 17:23 | 41.97044 | -87.89206 | 655 ft | 15 kts | 90° |
| 2026-05-06 17:24 | 41.97044 | -87.89050 | 655 ft | 17 kts | 90° |
| 2026-05-06 17:24 | 41.97043 | -87.88873 | 655 ft | 19 kts | 90° |
| 2026-05-06 17:24 | 41.97043 | -87.88680 | 655 ft | 22 kts | 90° |
| 2026-05-06 17:24 | 41.97043 | -87.88470 | 655 ft | 22 kts | 88° |
| 2026-05-06 17:25 | 41.97044 | -87.88280 | 655 ft | 17 kts | 90° |
| 2026-05-06 17:25 | 41.97045 | -87.88166 | 655 ft | 8 kts | 90° |
| 2026-05-06 17:25 | 41.97045 | -87.88121 | 654 ft | 0 kts | 90° |
| 2026-05-06 17:26 | 41.97045 | -87.88119 | 654 ft | 1 kts | 90° |
| 2026-05-06 17:26 | 41.97044 | -87.88095 | 653 ft | 3 kts | 96° |
| 2026-05-06 17:27 | 41.97033 | -87.88064 | 653 ft | 4 kts | 125° |
| 2026-05-06 17:27 | 41.97011 | -87.88041 | 653 ft | 3 kts | 153° |
| 2026-05-06 17:27 | 41.96985 | -87.88030 | 652 ft | 3 kts | 168° |
| 2026-05-06 17:27 | 41.96961 | -87.88027 | 652 ft | 2 kts | 188° |
| 2026-05-06 17:28 | 41.96944 | -87.88037 | 652 ft | 2 kts | 214° |
| 2026-05-06 17:28 | 41.96940 | -87.88042 | 652 ft | 0 kts | 219° |
| 2026-05-06 17:28 | 41.96925 | -87.88059 | 652 ft | 21 kts | 222° |
| 2026-05-06 17:29 | 41.96614 | -87.88434 | 656 ft | 96 kts | 223° |
| 2026-05-06 17:29 | 41.95939 | -87.89230 | 662 ft | 157 kts | 224° |
| 2026-05-06 17:29 | 41.95107 | -87.90211 | 1308 ft | 159 kts | 224° |
| 2026-05-06 17:29 | 41.94276 | -87.91197 | 2036 ft | 165 kts | 220° |
| 2026-05-06 17:30 | 41.93196 | -87.91929 | 2444 ft | 187 kts | 202° |
| 2026-05-06 17:30 | 41.91949 | -87.92487 | 2878 ft | 201 kts | 203° |
| 2026-05-06 17:30 | 41.90596 | -87.93173 | 3332 ft | 217 kts | 204° |
| 2026-05-06 17:30 | 41.89141 | -87.93930 | 3833 ft | 232 kts | 204° |
| 2026-05-06 17:31 | 41.87590 | -87.94724 | 4343 ft | 248 kts | 204° |
| 2026-05-06 17:31 | 41.85944 | -87.95550 | 4929 ft | 262 kts | 203° |
| 2026-05-06 17:31 | 41.84219 | -87.96405 | 5664 ft | 268 kts | 203° |
| 2026-05-06 17:31 | 41.82453 | -87.97276 | 6475 ft | 272 kts | 203° |
| 2026-05-06 17:32 | 41.80715 | -87.98136 | 7310 ft | 273 kts | 203° |
| 2026-05-06 17:32 | 41.78931 | -87.99024 | 8132 ft | 276 kts | 204° |
| 2026-05-06 17:32 | 41.77134 | -87.99920 | 8946 ft | 278 kts | 204° |
| 2026-05-06 17:32 | 41.75328 | -88.00818 | 9763 ft | 279 kts | 204° |
| 2026-05-06 17:33 | 41.73525 | -88.01711 | 10586 ft | 280 kts | 205° |
| 2026-05-06 17:33 | 41.71695 | -88.02615 | 11380 ft | 280 kts | 206° |
| 2026-05-06 17:33 | 41.69877 | -88.03513 | 12142 ft | 281 kts | 206° |
| 2026-05-06 17:33 | 41.68047 | -88.04418 | 12857 ft | 284 kts | 206° |
| 2026-05-06 17:34 | 41.66199 | -88.05335 | 13625 ft | 283 kts | 207° |
| 2026-05-06 17:34 | 41.64370 | -88.06244 | 14304 ft | 286 kts | 207° |
| 2026-05-06 17:34 | 41.62512 | -88.07166 | 15005 ft | 287 kts | 207° |
| 2026-05-06 17:34 | 41.60621 | -88.08100 | 15639 ft | 291 kts | 207° |
| 2026-05-06 17:35 | 41.58723 | -88.09041 | 16316 ft | 292 kts | 207° |
| 2026-05-06 17:35 | 41.56858 | -88.09962 | 17058 ft | 290 kts | 208° |
| 2026-05-06 17:35 | 41.54953 | -88.10908 | 17573 ft | 296 kts | 208° |
| 2026-05-06 17:36 | 41.51110 | -88.12814 | 18868 ft | 297 kts | 208° |
| 2026-05-06 17:36 | 41.49151 | -88.13778 | 19477 ft | 298 kts | 208° |
| 2026-05-06 17:36 | 41.47214 | -88.14724 | 20120 ft | 297 kts | 209° |
| 2026-05-06 17:36 | 41.45285 | -88.15677 | 20712 ft | 298 kts | 210° |
| 2026-05-06 17:37 | 41.43332 | -88.16645 | 21190 ft | 302 kts | 209° |
| 2026-05-06 17:37 | 41.41369 | -88.17606 | 21827 ft | 300 kts | 210° |
| 2026-05-06 17:37 | 41.39411 | -88.18559 | 22353 ft | 302 kts | 210° |
| 2026-05-06 17:37 | 41.37438 | -88.19472 | 22888 ft | 303 kts | 209° |
| 2026-05-06 17:38 | 41.35452 | -88.20348 | 23461 ft | 302 kts | 208° |
| 2026-05-06 17:38 | 41.33426 | -88.21233 | 23860 ft | 306 kts | 210° |
| 2026-05-06 17:38 | 41.31401 | -88.22134 | 24296 ft | 308 kts | 210° |
| 2026-05-06 17:38 | 41.29392 | -88.23031 | 24784 ft | 308 kts | 211° |
| 2026-05-06 17:39 | 41.27365 | -88.23931 | 25238 ft | 308 kts | 211° |
| 2026-05-06 17:39 | 41.25308 | -88.24848 | 25628 ft | 310 kts | 211° |
| 2026-05-06 17:39 | 41.23289 | -88.25756 | 26108 ft | 309 kts | 212° |
| 2026-05-06 17:39 | 41.21226 | -88.26691 | 26460 ft | 312 kts | 212° |
| 2026-05-06 17:40 | 41.19197 | -88.27602 | 26890 ft | 312 kts | 212° |
| 2026-05-06 17:40 | 41.17154 | -88.28522 | 27328 ft | 311 kts | 213° |
| 2026-05-06 17:40 | 41.15090 | -88.29463 | 27583 ft | 315 kts | 213° |
| 2026-05-06 17:40 | 41.13024 | -88.30393 | 28151 ft | 310 kts | 213° |
| 2026-05-06 17:41 | 41.10980 | -88.31297 | 28538 ft | 310 kts | 214° |
| 2026-05-06 17:41 | 41.08933 | -88.32210 | 28922 ft | 309 kts | 215° |
| 2026-05-06 17:41 | 41.06879 | -88.33145 | 29105 ft | 314 kts | 214° |
| 2026-05-06 17:41 | 41.04843 | -88.34061 | 29706 ft | 307 kts | 216° |
| 2026-05-06 17:42 | 41.00768 | -88.35915 | 30186 ft | 311 kts | 216° |
| 2026-05-06 17:42 | 40.98705 | -88.36844 | 30469 ft | 312 kts | 216° |
| 2026-05-06 17:42 | 40.96674 | -88.37782 | 30731 ft | 312 kts | 217° |
| 2026-05-06 17:43 | 40.94602 | -88.38747 | 30947 ft | 315 kts | 216° |
| 2026-05-06 17:43 | 40.92549 | -88.39660 | 31420 ft | 310 kts | 216° |
| 2026-05-06 17:43 | 40.88360 | -88.41544 | 31650 ft | 320 kts | 216° |
| 2026-05-06 17:44 | 40.86292 | -88.42446 | 32007 ft | 318 kts | 216° |
| 2026-05-06 17:44 | 40.84166 | -88.43385 | 32248 ft | 319 kts | 216° |
| 2026-05-06 17:44 | 40.82052 | -88.44326 | 32394 ft | 322 kts | 216° |
| 2026-05-06 17:44 | 40.79944 | -88.45280 | 32795 ft | 317 kts | 217° |
| 2026-05-06 17:45 | 40.77838 | -88.46234 | 32907 ft | 321 kts | 217° |
| 2026-05-06 17:45 | 40.75734 | -88.47173 | 33116 ft | 323 kts | 217° |
| 2026-05-06 17:45 | 40.71394 | -88.49088 | 33410 ft | 328 kts | 217° |
| 2026-05-06 17:46 | 40.69250 | -88.50040 | 33624 ft | 329 kts | 217° |
| 2026-05-06 17:46 | 40.67070 | -88.51009 | 33853 ft | 329 kts | 216° |
| 2026-05-06 17:46 | 40.64874 | -88.51979 | 34016 ft | 331 kts | 216° |
| 2026-05-06 17:46 | 40.62690 | -88.52946 | 34015 ft | 335 kts | 216° |
| 2026-05-06 17:47 | 40.58186 | -88.54951 | 34026 ft | 345 kts | 215° |
| 2026-05-06 17:47 | 40.53571 | -88.56987 | 34030 ft | 355 kts | 216° |
| 2026-05-06 17:48 | 40.48842 | -88.59105 | 34025 ft | 362 kts | 216° |
| 2026-05-06 17:48 | 40.44041 | -88.61248 | 34024 ft | 370 kts | 215° |
| 2026-05-06 17:49 | 40.39116 | -88.63412 | 34026 ft | 371 kts | 214° |
| 2026-05-06 17:49 | 40.34245 | -88.65616 | 34028 ft | 366 kts | 217° |
| 2026-05-06 17:50 | 40.29997 | -88.68822 | 34025 ft | 340 kts | 231° |
| 2026-05-06 17:50 | 40.26575 | -88.72997 | 34024 ft | 334 kts | 234° |
| 2026-05-06 17:51 | 40.23305 | -88.77314 | 34019 ft | 334 kts | 235° |
| 2026-05-06 17:51 | 40.20001 | -88.81568 | 34020 ft | 336 kts | 235° |
| 2026-05-06 17:52 | 40.16671 | -88.85836 | 34019 ft | 333 kts | 234° |
| 2026-05-06 17:52 | 40.13374 | -88.90071 | 34016 ft | 333 kts | 234° |
| 2026-05-06 17:53 | 40.10034 | -88.94348 | 34049 ft | 337 kts | 235° |
| 2026-05-06 17:53 | 40.06696 | -88.98597 | 34027 ft | 333 kts | 234° |
| 2026-05-06 17:54 | 40.03396 | -89.02772 | 34019 ft | 330 kts | 235° |
| 2026-05-06 17:54 | 40.00097 | -89.06953 | 34022 ft | 334 kts | 235° |
| 2026-05-06 17:55 | 39.96769 | -89.11166 | 34021 ft | 332 kts | 235° |
| 2026-05-06 17:55 | 39.93462 | -89.15347 | 34026 ft | 330 kts | 234° |
| 2026-05-06 17:56 | 39.90176 | -89.19524 | 34026 ft | 331 kts | 234° |
| 2026-05-06 17:56 | 39.86882 | -89.23677 | 34025 ft | 328 kts | 235° |
| 2026-05-06 17:57 | 39.83579 | -89.27855 | 34029 ft | 330 kts | 234° |
| 2026-05-06 17:57 | 39.80297 | -89.32016 | 34030 ft | 330 kts | 235° |
| 2026-05-06 17:58 | 39.76977 | -89.36171 | 34033 ft | 331 kts | 234° |
| 2026-05-06 17:58 | 39.73687 | -89.40285 | 34040 ft | 328 kts | 234° |
| 2026-05-06 17:59 | 39.70410 | -89.44416 | 34038 ft | 329 kts | 235° |
| 2026-05-06 17:59 | 39.67101 | -89.48584 | 34044 ft | 332 kts | 234° |
| 2026-05-06 18:00 | 39.63775 | -89.52703 | 34040 ft | 327 kts | 234° |
| 2026-05-06 18:00 | 39.60475 | -89.56790 | 34038 ft | 330 kts | 234° |
| 2026-05-06 18:01 | 39.57177 | -89.60912 | 34039 ft | 329 kts | 234° |
| 2026-05-06 18:01 | 39.53889 | -89.65043 | 34040 ft | 328 kts | 234° |
| 2026-05-06 18:02 | 39.50575 | -89.69155 | 34036 ft | 332 kts | 233° |
| 2026-05-06 18:02 | 39.47271 | -89.73274 | 34036 ft | 326 kts | 233° |
| 2026-05-06 18:03 | 39.44019 | -89.77302 | 34043 ft | 327 kts | 234° |
| 2026-05-06 18:03 | 39.40710 | -89.81404 | 34046 ft | 327 kts | 234° |
| 2026-05-06 18:04 | 39.37420 | -89.85439 | 34049 ft | 326 kts | 233° |
| 2026-05-06 18:04 | 39.34163 | -89.89463 | 34048 ft | 323 kts | 234° |
| 2026-05-06 18:05 | 39.30932 | -89.93498 | 34047 ft | 326 kts | 233° |
| 2026-05-06 18:05 | 39.27620 | -89.97578 | 34052 ft | 327 kts | 233° |
| 2026-05-06 18:06 | 39.24359 | -90.01556 | 34053 ft | 325 kts | 234° |
| 2026-05-06 18:06 | 39.21067 | -90.05602 | 34049 ft | 326 kts | 233° |
| 2026-05-06 18:07 | 39.17783 | -90.09620 | 34044 ft | 327 kts | 233° |
| 2026-05-06 18:07 | 39.14475 | -90.13682 | 34040 ft | 328 kts | 234° |
| 2026-05-06 18:08 | 39.11175 | -90.17707 | 34044 ft | 324 kts | 233° |
| 2026-05-06 18:08 | 39.07877 | -90.21706 | 34049 ft | 326 kts | 233° |
| 2026-05-06 18:09 | 39.04599 | -90.25719 | 34054 ft | 323 kts | 234° |
| 2026-05-06 18:09 | 39.01329 | -90.29670 | 34058 ft | 324 kts | 233° |
| 2026-05-06 18:10 | 38.98066 | -90.33646 | 34058 ft | 322 kts | 234° |
| 2026-05-06 18:10 | 38.94806 | -90.37620 | 34060 ft | 325 kts | 233° |
| 2026-05-06 18:11 | 38.91503 | -90.41595 | 34061 ft | 327 kts | 233° |
| 2026-05-06 18:11 | 38.88207 | -90.45613 | 34063 ft | 325 kts | 233° |
| 2026-05-06 18:12 | 38.84419 | -90.49017 | 34070 ft | 351 kts | 219° |
| 2026-05-06 18:12 | 38.79729 | -90.51181 | 34069 ft | 362 kts | 214° |
| 2026-05-06 18:13 | 38.74915 | -90.53163 | 34071 ft | 363 kts | 214° |
| 2026-05-06 18:13 | 38.70127 | -90.55173 | 34070 ft | 360 kts | 214° |
| 2026-05-06 18:14 | 38.65401 | -90.57191 | 34070 ft | 357 kts | 215° |
| 2026-05-06 18:14 | 38.60672 | -90.59257 | 34068 ft | 360 kts | 214° |
| 2026-05-06 18:15 | 38.55941 | -90.61295 | 34069 ft | 357 kts | 214° |
| 2026-05-06 18:15 | 38.51224 | -90.63341 | 34067 ft | 359 kts | 214° |
| 2026-05-06 18:16 | 38.46521 | -90.65359 | 34067 ft | 356 kts | 214° |
| 2026-05-06 18:16 | 38.41767 | -90.67427 | 34061 ft | 361 kts | 214° |
| 2026-05-06 18:17 | 38.37033 | -90.69465 | 34058 ft | 360 kts | 214° |
| 2026-05-06 18:17 | 38.32272 | -90.71516 | 34056 ft | 362 kts | 213° |
| 2026-05-06 18:18 | 38.27546 | -90.73531 | 34055 ft | 357 kts | 213° |
| 2026-05-06 18:18 | 38.22826 | -90.75559 | 34053 ft | 360 kts | 213° |
| 2026-05-06 18:19 | 38.18064 | -90.77605 | 34052 ft | 362 kts | 214° |
| 2026-05-06 18:19 | 38.13327 | -90.79624 | 34051 ft | 359 kts | 213° |
| 2026-05-06 18:20 | 38.08572 | -90.81658 | 34052 ft | 361 kts | 214° |
| 2026-05-06 18:20 | 38.03833 | -90.83660 | 34051 ft | 360 kts | 214° |
| 2026-05-06 18:21 | 37.99066 | -90.85696 | 34050 ft | 358 kts | 213° |
| 2026-05-06 18:21 | 37.94390 | -90.87691 | 34050 ft | 360 kts | 213° |
| 2026-05-06 18:22 | 37.89606 | -90.89733 | 34051 ft | 363 kts | 213° |
| 2026-05-06 18:22 | 37.84841 | -90.91745 | 34043 ft | 359 kts | 213° |
| 2026-05-06 18:23 | 37.80111 | -90.93755 | 34032 ft | 362 kts | 214° |
| 2026-05-06 18:23 | 37.75272 | -90.95820 | 34026 ft | 367 kts | 213° |
| 2026-05-06 18:24 | 37.70463 | -90.97832 | 34023 ft | 362 kts | 213° |
| 2026-05-06 18:24 | 37.65705 | -90.99835 | 34025 ft | 364 kts | 213° |
| 2026-05-06 18:25 | 37.60894 | -91.01868 | 34023 ft | 363 kts | 213° |
| 2026-05-06 18:25 | 37.56152 | -91.03825 | 34022 ft | 358 kts | 212° |
| 2026-05-06 18:26 | 37.51413 | -91.05841 | 34023 ft | 365 kts | 212° |
| 2026-05-06 18:26 | 37.46617 | -91.07858 | 34022 ft | 361 kts | 213° |
| 2026-05-06 18:27 | 37.41830 | -91.09850 | 34025 ft | 364 kts | 213° |
| 2026-05-06 18:27 | 37.37033 | -91.11860 | 34024 ft | 362 kts | 212° |
| 2026-05-06 18:28 | 37.32241 | -91.13860 | 34024 ft | 364 kts | 213° |
| 2026-05-06 18:28 | 37.27423 | -91.15863 | 34021 ft | 363 kts | 212° |
| 2026-05-06 18:29 | 37.22635 | -91.17850 | 34024 ft | 363 kts | 213° |
| 2026-05-06 18:29 | 37.17833 | -91.19854 | 34023 ft | 363 kts | 212° |
| 2026-05-06 18:30 | 37.13030 | -91.21862 | 34026 ft | 367 kts | 213° |
| 2026-05-06 18:30 | 37.08206 | -91.23862 | 34021 ft | 365 kts | 212° |
| 2026-05-06 18:31 | 37.03373 | -91.25870 | 34022 ft | 367 kts | 212° |
| 2026-05-06 18:31 | 36.98517 | -91.27879 | 34023 ft | 366 kts | 212° |
| 2026-05-06 18:32 | 36.93715 | -91.29841 | 34022 ft | 364 kts | 212° |
| 2026-05-06 18:32 | 36.88874 | -91.31855 | 34021 ft | 367 kts | 212° |
| 2026-05-06 18:33 | 36.84018 | -91.33861 | 34021 ft | 366 kts | 212° |
| 2026-05-06 18:33 | 36.79167 | -91.35846 | 34022 ft | 367 kts | 212° |
| 2026-05-06 18:34 | 36.74343 | -91.37837 | 34023 ft | 366 kts | 212° |
| 2026-05-06 18:34 | 36.69511 | -91.39830 | 34023 ft | 365 kts | 212° |
| 2026-05-06 18:35 | 36.64678 | -91.41800 | 34025 ft | 367 kts | 212° |
| 2026-05-06 18:35 | 36.59794 | -91.43797 | 34028 ft | 368 kts | 212° |
| 2026-05-06 18:36 | 36.54954 | -91.45767 | 34031 ft | 368 kts | 212° |
| 2026-05-06 18:36 | 36.50100 | -91.47768 | 34027 ft | 367 kts | 213° |
| 2026-05-06 18:37 | 36.45216 | -91.49766 | 34029 ft | 369 kts | 212° |
| 2026-05-06 18:37 | 36.40367 | -91.51732 | 34030 ft | 368 kts | 212° |
| 2026-05-06 18:38 | 36.35474 | -91.53719 | 34032 ft | 370 kts | 212° |
| 2026-05-06 18:38 | 36.30588 | -91.55695 | 34032 ft | 369 kts | 212° |
| 2026-05-06 18:39 | 36.25724 | -91.57674 | 34032 ft | 369 kts | 212° |
| 2026-05-06 18:40 | 36.18340 | -91.60644 | 34031 ft | 372 kts | 212° |
| 2026-05-06 18:40 | 36.13456 | -91.62609 | 34034 ft | 371 kts | 212° |
| 2026-05-06 18:41 | 36.08538 | -91.64600 | 34033 ft | 369 kts | 212° |
| 2026-05-06 18:41 | 36.03613 | -91.66599 | 34034 ft | 376 kts | 212° |
| 2026-05-06 18:42 | 35.98661 | -91.68598 | 34034 ft | 375 kts | 212° |
| 2026-05-06 18:42 | 35.93724 | -91.70575 | 34036 ft | 373 kts | 212° |
| 2026-05-06 18:43 | 35.88801 | -91.72553 | 34036 ft | 375 kts | 211° |
| 2026-05-06 18:43 | 35.83830 | -91.74551 | 34040 ft | 374 kts | 211° |
| 2026-05-06 18:44 | 35.78877 | -91.76529 | 34053 ft | 375 kts | 211° |
| 2026-05-06 18:44 | 35.73943 | -91.78531 | 34050 ft | 374 kts | 212° |
| 2026-05-06 18:45 | 35.68985 | -91.80498 | 34048 ft | 374 kts | 211° |
| 2026-05-06 18:45 | 35.64071 | -91.82449 | 34041 ft | 371 kts | 211° |
| 2026-05-06 18:46 | 35.59105 | -91.84396 | 34034 ft | 376 kts | 211° |
| 2026-05-06 18:46 | 35.54173 | -91.86370 | 34030 ft | 371 kts | 211° |
| 2026-05-06 18:47 | 35.49237 | -91.88364 | 34026 ft | 377 kts | 212° |
| 2026-05-06 18:47 | 35.44251 | -91.90339 | 34029 ft | 377 kts | 212° |
| 2026-05-06 18:48 | 35.39271 | -91.92304 | 34026 ft | 372 kts | 211° |
| 2026-05-06 18:48 | 35.34350 | -91.94252 | 34027 ft | 375 kts | 211° |
| 2026-05-06 18:49 | 35.29378 | -91.96221 | 34026 ft | 374 kts | 211° |
| 2026-05-06 18:49 | 35.24413 | -91.98178 | 34034 ft | 375 kts | 211° |
| 2026-05-06 18:50 | 35.19449 | -92.00137 | 34030 ft | 374 kts | 211° |
| 2026-05-06 18:50 | 35.14507 | -92.02093 | 34026 ft | 374 kts | 211° |
| 2026-05-06 18:51 | 35.09531 | -92.04022 | 34026 ft | 377 kts | 211° |
| 2026-05-06 18:51 | 35.04540 | -92.05977 | 34034 ft | 375 kts | 211° |
| 2026-05-06 18:52 | 34.99535 | -92.07937 | 34045 ft | 379 kts | 211° |
| 2026-05-06 18:52 | 34.94530 | -92.09905 | 34046 ft | 378 kts | 211° |
| 2026-05-06 18:53 | 34.89518 | -92.11877 | 34048 ft | 379 kts | 211° |
| 2026-05-06 18:53 | 34.84510 | -92.13818 | 34046 ft | 378 kts | 211° |
| 2026-05-06 18:54 | 34.79691 | -92.16142 | 34045 ft | 368 kts | 217° |
| 2026-05-06 18:54 | 34.75277 | -92.19096 | 34049 ft | 363 kts | 220° |
| 2026-05-06 18:55 | 34.70908 | -92.22224 | 34045 ft | 367 kts | 220° |
| 2026-05-06 18:55 | 34.66547 | -92.25303 | 34045 ft | 363 kts | 220° |
| 2026-05-06 18:56 | 34.62167 | -92.28394 | 34044 ft | 364 kts | 220° |
| 2026-05-06 18:56 | 34.57827 | -92.31426 | 34042 ft | 369 kts | 219° |
| 2026-05-06 18:57 | 34.53389 | -92.34518 | 34042 ft | 366 kts | 220° |
| 2026-05-06 18:57 | 34.48994 | -92.37588 | 34040 ft | 369 kts | 220° |
| 2026-05-06 18:58 | 34.44541 | -92.40695 | 34032 ft | 368 kts | 220° |
| 2026-05-06 18:58 | 34.40084 | -92.43793 | 34022 ft | 370 kts | 220° |
| 2026-05-06 18:59 | 34.35607 | -92.46902 | 34015 ft | 371 kts | 219° |
| 2026-05-06 18:59 | 34.31137 | -92.49998 | 34014 ft | 373 kts | 220° |
| 2026-05-06 19:00 | 34.26619 | -92.53151 | 34014 ft | 372 kts | 220° |
| 2026-05-06 19:00 | 34.22181 | -92.56242 | 34013 ft | 372 kts | 219° |
| 2026-05-06 19:01 | 34.17666 | -92.59352 | 34010 ft | 376 kts | 219° |
| 2026-05-06 19:01 | 34.13123 | -92.62476 | 34009 ft | 372 kts | 219° |
| 2026-05-06 19:02 | 34.08687 | -92.65543 | 34010 ft | 375 kts | 218° |
| 2026-05-06 19:02 | 34.04249 | -92.68603 | 34010 ft | 377 kts | 219° |
| 2026-05-06 19:03 | 33.99719 | -92.71722 | 34005 ft | 375 kts | 219° |
| 2026-05-06 19:03 | 33.95232 | -92.74815 | 34001 ft | 376 kts | 218° |
| 2026-05-06 19:04 | 33.90701 | -92.77895 | 34001 ft | 376 kts | 218° |
| 2026-05-06 19:04 | 33.86148 | -92.80997 | 34004 ft | 377 kts | 218° |
| 2026-05-06 19:05 | 33.81602 | -92.84087 | 34005 ft | 377 kts | 219° |
| 2026-05-06 19:05 | 33.77046 | -92.87212 | 33999 ft | 377 kts | 218° |
| 2026-05-06 19:06 | 33.72526 | -92.90323 | 34000 ft | 373 kts | 218° |
| 2026-05-06 19:06 | 33.67959 | -92.93446 | 34003 ft | 378 kts | 218° |
| 2026-05-06 19:07 | 33.63449 | -92.96540 | 33998 ft | 374 kts | 218° |
| 2026-05-06 19:07 | 33.58906 | -92.99622 | 33992 ft | 376 kts | 218° |
| 2026-05-06 19:08 | 33.54317 | -93.02731 | 33993 ft | 377 kts | 219° |
| 2026-05-06 19:08 | 33.49773 | -93.05823 | 33986 ft | 377 kts | 219° |
| 2026-05-06 19:09 | 33.45283 | -93.09077 | 33983 ft | 377 kts | 220° |
| 2026-05-06 19:09 | 33.40860 | -93.12344 | 33987 ft | 374 kts | 221° |
| 2026-05-06 19:10 | 33.36393 | -93.15630 | 33985 ft | 375 kts | 220° |
| 2026-05-06 19:10 | 33.31953 | -93.18878 | 33986 ft | 376 kts | 219° |
| 2026-05-06 19:11 | 33.27480 | -93.22134 | 33992 ft | 375 kts | 220° |
| 2026-05-06 19:11 | 33.23017 | -93.25377 | 33984 ft | 381 kts | 220° |
| 2026-05-06 19:12 | 33.18488 | -93.28663 | 33984 ft | 380 kts | 220° |
| 2026-05-06 19:12 | 33.14000 | -93.31924 | 33979 ft | 378 kts | 219° |
| 2026-05-06 19:13 | 33.09484 | -93.35207 | 33974 ft | 381 kts | 219° |
| 2026-05-06 19:13 | 33.04945 | -93.38492 | 33974 ft | 381 kts | 219° |
| 2026-05-06 19:14 | 33.00428 | -93.41745 | 33965 ft | 380 kts | 219° |
| 2026-05-06 19:14 | 32.95898 | -93.45035 | 33961 ft | 383 kts | 220° |
| 2026-05-06 19:15 | 32.91371 | -93.48311 | 33962 ft | 381 kts | 219° |
| 2026-05-06 19:15 | 32.86823 | -93.51580 | 33961 ft | 382 kts | 219° |
| 2026-05-06 19:16 | 32.82238 | -93.54878 | 33956 ft | 384 kts | 220° |
| 2026-05-06 19:16 | 32.77692 | -93.58144 | 33954 ft | 383 kts | 219° |
| 2026-05-06 19:17 | 32.73130 | -93.61395 | 33953 ft | 383 kts | 219° |
| 2026-05-06 19:17 | 32.68570 | -93.64661 | 33957 ft | 384 kts | 220° |
| 2026-05-06 19:18 | 32.63995 | -93.67950 | 33960 ft | 384 kts | 219° |
| 2026-05-06 19:18 | 32.59436 | -93.71216 | 33960 ft | 382 kts | 219° |
| 2026-05-06 19:19 | 32.54867 | -93.74480 | 33956 ft | 385 kts | 219° |
| 2026-05-06 19:19 | 32.50259 | -93.77760 | 33955 ft | 388 kts | 219° |
| 2026-05-06 19:20 | 32.45668 | -93.81030 | 33951 ft | 383 kts | 219° |
| 2026-05-06 19:20 | 32.41065 | -93.84310 | 33954 ft | 388 kts | 219° |
| 2026-05-06 19:21 | 32.36460 | -93.87595 | 33950 ft | 386 kts | 219° |
| 2026-05-06 19:21 | 32.31873 | -93.90851 | 33956 ft | 385 kts | 219° |
| 2026-05-06 19:22 | 32.27282 | -93.94101 | 33951 ft | 386 kts | 219° |
| 2026-05-06 19:22 | 32.22681 | -93.97360 | 33939 ft | 388 kts | 219° |
| 2026-05-06 19:23 | 32.18061 | -94.00623 | 33938 ft | 385 kts | 219° |
| 2026-05-06 19:23 | 32.13453 | -94.03883 | 33931 ft | 388 kts | 219° |
| 2026-05-06 19:24 | 32.08815 | -94.07169 | 33932 ft | 388 kts | 219° |
| 2026-05-06 19:24 | 32.04231 | -94.10386 | 33932 ft | 387 kts | 219° |
| 2026-05-06 19:25 | 31.99596 | -94.13644 | 33930 ft | 388 kts | 219° |
| 2026-05-06 19:25 | 31.94971 | -94.16896 | 33926 ft | 388 kts | 219° |
| 2026-05-06 19:26 | 31.90325 | -94.20164 | 33925 ft | 387 kts | 219° |
| 2026-05-06 19:26 | 31.85665 | -94.23433 | 33922 ft | 390 kts | 219° |
| 2026-05-06 19:27 | 31.81045 | -94.26668 | 33922 ft | 387 kts | 218° |
| 2026-05-06 19:27 | 31.76394 | -94.29927 | 33918 ft | 390 kts | 219° |
| 2026-05-06 19:28 | 31.71733 | -94.33175 | 33912 ft | 388 kts | 219° |
| 2026-05-06 19:28 | 31.67077 | -94.36401 | 33910 ft | 390 kts | 219° |
| 2026-05-06 19:29 | 31.62429 | -94.39646 | 33907 ft | 389 kts | 219° |
| 2026-05-06 19:29 | 31.57761 | -94.42905 | 33909 ft | 391 kts | 219° |
| 2026-05-06 19:30 | 31.53084 | -94.46152 | 33911 ft | 390 kts | 219° |
| 2026-05-06 19:30 | 31.48425 | -94.49392 | 33909 ft | 392 kts | 219° |
| 2026-05-06 19:31 | 31.43775 | -94.52628 | 33906 ft | 390 kts | 218° |
| 2026-05-06 19:31 | 31.36759 | -94.57487 | 33897 ft | 392 kts | 219° |
| 2026-05-06 19:32 | 31.32059 | -94.60740 | 33896 ft | 392 kts | 219° |
| 2026-05-06 19:32 | 31.27377 | -94.63989 | 33895 ft | 392 kts | 219° |
| 2026-05-06 19:33 | 31.22642 | -94.67258 | 33900 ft | 396 kts | 218° |
| 2026-05-06 19:33 | 31.17926 | -94.70499 | 33896 ft | 391 kts | 218° |
| 2026-05-06 19:34 | 31.13082 | -94.73526 | 33902 ft | 399 kts | 214° |
| 2026-05-06 19:34 | 31.08004 | -94.76165 | 33893 ft | 399 kts | 212° |
| 2026-05-06 19:35 | 31.02899 | -94.78767 | 33892 ft | 399 kts | 213° |
| 2026-05-06 19:35 | 30.97833 | -94.81387 | 33887 ft | 399 kts | 213° |
| 2026-05-06 19:36 | 30.92782 | -94.84033 | 33883 ft | 399 kts | 213° |
| 2026-05-06 19:36 | 30.87708 | -94.86704 | 33887 ft | 402 kts | 213° |
| 2026-05-06 19:37 | 30.82608 | -94.89378 | 33886 ft | 401 kts | 213° |
| 2026-05-06 19:37 | 30.77537 | -94.92039 | 33883 ft | 402 kts | 213° |
| 2026-05-06 19:38 | 30.72412 | -94.94729 | 33881 ft | 403 kts | 212° |
| 2026-05-06 19:38 | 30.67295 | -94.97407 | 33874 ft | 402 kts | 212° |
| 2026-05-06 19:39 | 30.62191 | -95.00073 | 33872 ft | 405 kts | 213° |
| 2026-05-06 19:39 | 30.57061 | -95.02749 | 33872 ft | 401 kts | 212° |
| 2026-05-06 19:40 | 30.51972 | -95.05405 | 33872 ft | 404 kts | 212° |
| 2026-05-06 19:40 | 30.46829 | -95.08077 | 33871 ft | 405 kts | 212° |
| 2026-05-06 19:41 | 30.41679 | -95.10757 | 33872 ft | 404 kts | 212° |
| 2026-05-06 19:41 | 30.36563 | -95.13419 | 33874 ft | 404 kts | 212° |
| 2026-05-06 19:42 | 30.31395 | -95.16104 | 33875 ft | 407 kts | 212° |
| 2026-05-06 19:42 | 30.26226 | -95.18776 | 33871 ft | 406 kts | 212° |
| 2026-05-06 19:43 | 30.21078 | -95.21443 | 33873 ft | 407 kts | 212° |
| 2026-05-06 19:43 | 30.15915 | -95.24121 | 33875 ft | 408 kts | 212° |
| 2026-05-06 19:44 | 30.10730 | -95.26799 | 33878 ft | 407 kts | 212° |
| 2026-05-06 19:44 | 30.05543 | -95.29474 | 33879 ft | 407 kts | 212° |
| 2026-05-06 19:45 | 30.00329 | -95.32166 | 33877 ft | 409 kts | 212° |
| 2026-05-06 19:45 | 29.95261 | -95.35051 | 33872 ft | 404 kts | 218° |
| 2026-05-06 19:46 | 29.90575 | -95.38599 | 33868 ft | 401 kts | 221° |
| 2026-05-06 19:46 | 29.86033 | -95.42337 | 33868 ft | 400 kts | 222° |
| 2026-05-06 19:47 | 29.81506 | -95.46080 | 33866 ft | 400 kts | 221° |
| 2026-05-06 19:47 | 29.76976 | -95.49789 | 33865 ft | 401 kts | 221° |
| 2026-05-06 19:48 | 29.72405 | -95.53512 | 33866 ft | 400 kts | 221° |
| 2026-05-06 19:48 | 29.67844 | -95.57217 | 33868 ft | 402 kts | 221° |
| 2026-05-06 19:49 | 29.63267 | -95.60931 | 33870 ft | 401 kts | 221° |
| 2026-05-06 19:49 | 29.58698 | -95.64638 | 33869 ft | 402 kts | 221° |
| 2026-05-06 19:50 | 29.54118 | -95.68343 | 33871 ft | 402 kts | 221° |
| 2026-05-06 19:50 | 29.49557 | -95.72028 | 33867 ft | 403 kts | 221° |
| 2026-05-06 19:51 | 29.44940 | -95.75762 | 33861 ft | 404 kts | 221° |
| 2026-05-06 19:51 | 29.40361 | -95.79456 | 33855 ft | 403 kts | 221° |
| 2026-05-06 19:52 | 29.35753 | -95.83173 | 33855 ft | 405 kts | 221° |
| 2026-05-06 19:52 | 29.31155 | -95.86868 | 33851 ft | 403 kts | 221° |
| 2026-05-06 19:53 | 29.26560 | -95.90559 | 33846 ft | 405 kts | 221° |
| 2026-05-06 19:53 | 29.21934 | -95.94273 | 33851 ft | 405 kts | 221° |
| 2026-05-06 19:54 | 29.17310 | -95.97980 | 33845 ft | 404 kts | 221° |
| 2026-05-06 19:54 | 29.12708 | -96.01669 | 33842 ft | 406 kts | 221° |
| 2026-05-06 19:55 | 29.08065 | -96.05388 | 33836 ft | 405 kts | 220° |
| 2026-05-06 19:55 | 29.03456 | -96.09071 | 33831 ft | 406 kts | 221° |
| 2026-05-06 19:56 | 28.98821 | -96.12772 | 33830 ft | 407 kts | 221° |
| 2026-05-06 19:56 | 28.94158 | -96.16491 | 33828 ft | 407 kts | 221° |
| 2026-05-06 19:57 | 28.89512 | -96.20190 | 33832 ft | 408 kts | 220° |
| 2026-05-06 19:57 | 28.84848 | -96.23899 | 33837 ft | 408 kts | 221° |
| 2026-05-06 19:58 | 28.80157 | -96.27609 | 33841 ft | 408 kts | 219° |
| 2026-05-06 19:58 | 28.75132 | -96.30726 | 33845 ft | 418 kts | 208° |
| 2026-05-06 19:59 | 28.69514 | -96.32585 | 33847 ft | 426 kts | 201° |
| 2026-05-06 19:59 | 28.63682 | -96.34041 | 33842 ft | 427 kts | 200° |
| 2026-05-06 20:00 | 28.57848 | -96.35455 | 33838 ft | 427 kts | 200° |
| 2026-05-06 20:00 | 28.52031 | -96.36901 | 33830 ft | 428 kts | 200° |
| 2026-05-06 20:01 | 28.46206 | -96.38375 | 33831 ft | 425 kts | 200° |
| 2026-05-06 20:01 | 28.40427 | -96.39851 | 33832 ft | 428 kts | 200° |
| 2026-05-06 20:02 | 28.34600 | -96.41342 | 33834 ft | 428 kts | 200° |
| 2026-05-06 20:02 | 28.28805 | -96.42821 | 33838 ft | 427 kts | 200° |
| 2026-05-06 20:03 | 28.22978 | -96.44310 | 33838 ft | 427 kts | 200° |
| 2026-05-06 20:03 | 28.17175 | -96.45790 | 33840 ft | 427 kts | 200° |
| 2026-05-06 20:04 | 28.11365 | -96.47272 | 33842 ft | 428 kts | 200° |
| 2026-05-06 20:04 | 28.05518 | -96.48758 | 33845 ft | 428 kts | 199° |
| 2026-05-06 20:05 | 27.99686 | -96.50239 | 33849 ft | 428 kts | 199° |
| 2026-05-06 20:05 | 27.93892 | -96.51708 | 33850 ft | 427 kts | 200° |
| 2026-05-06 20:06 | 27.88054 | -96.53189 | 33843 ft | 430 kts | 199° |
| 2026-05-06 20:06 | 27.82210 | -96.54672 | 33838 ft | 430 kts | 199° |
| 2026-05-06 20:07 | 27.76360 | -96.56153 | 33834 ft | 430 kts | 199° |
| 2026-05-06 20:07 | 27.70497 | -96.57629 | 33840 ft | 430 kts | 199° |
| 2026-05-06 20:08 | 27.64693 | -96.59094 | 33838 ft | 430 kts | 199° |
| 2026-05-06 20:08 | 27.58797 | -96.60580 | 33837 ft | 430 kts | 199° |
| 2026-05-06 20:09 | 27.52950 | -96.62054 | 33835 ft | 431 kts | 199° |
| 2026-05-06 20:09 | 27.47102 | -96.63525 | 33836 ft | 431 kts | 199° |
| 2026-05-06 20:10 | 27.41194 | -96.65006 | 33838 ft | 432 kts | 198° |
| 2026-05-06 20:10 | 27.35319 | -96.66482 | 33832 ft | 433 kts | 198° |
| 2026-05-06 20:11 | 27.29441 | -96.67956 | 33829 ft | 432 kts | 198° |
| 2026-05-06 20:11 | 27.23576 | -96.69422 | 33825 ft | 432 kts | 198° |
| 2026-05-06 20:12 | 27.17683 | -96.70902 | 33818 ft | 432 kts | 198° |
| 2026-05-06 20:12 | 27.11809 | -96.72374 | 33814 ft | 433 kts | 198° |
| 2026-05-06 20:13 | 27.05921 | -96.73840 | 33810 ft | 434 kts | 198° |
| 2026-05-06 20:13 | 27.00017 | -96.75311 | 33817 ft | 433 kts | 198° |
| 2026-05-06 20:14 | 26.94098 | -96.76788 | 33813 ft | 434 kts | 198° |
| 2026-05-06 20:14 | 26.88162 | -96.78262 | 33812 ft | 434 kts | 198° |
| 2026-05-06 20:15 | 26.82271 | -96.79726 | 33809 ft | 433 kts | 198° |
| 2026-05-06 20:15 | 26.76380 | -96.81191 | 33808 ft | 434 kts | 198° |
| 2026-05-06 20:16 | 26.70470 | -96.82661 | 33806 ft | 436 kts | 198° |
| 2026-05-06 20:16 | 26.64505 | -96.84138 | 33805 ft | 436 kts | 198° |
| 2026-05-06 20:17 | 26.58564 | -96.85604 | 33805 ft | 435 kts | 198° |
| 2026-05-06 20:17 | 26.52673 | -96.87059 | 33803 ft | 435 kts | 198° |
| 2026-05-06 20:18 | 26.46751 | -96.88521 | 33805 ft | 436 kts | 198° |
| 2026-05-06 20:18 | 26.40774 | -96.89996 | 33802 ft | 436 kts | 198° |
| 2026-05-06 20:19 | 26.34847 | -96.91457 | 33803 ft | 437 kts | 198° |
| 2026-05-06 20:19 | 26.28928 | -96.92915 | 33802 ft | 437 kts | 197° |
| 2026-05-06 20:20 | 26.22939 | -96.94389 | 33800 ft | 438 kts | 198° |
| 2026-05-06 20:20 | 26.17013 | -96.95847 | 33803 ft | 437 kts | 198° |
| 2026-05-06 20:21 | 26.11060 | -96.97308 | 33802 ft | 438 kts | 198° |
| 2026-05-06 20:21 | 26.05094 | -96.98770 | 33802 ft | 438 kts | 197° |
| 2026-05-06 20:22 | 25.99135 | -97.00229 | 33797 ft | 439 kts | 197° |
| 2026-05-06 20:22 | 25.93115 | -97.01611 | 33809 ft | 438 kts | 196° |
| 2026-05-06 20:23 | 25.87154 | -97.02923 | 33818 ft | 440 kts | 196° |
| 2026-05-06 20:23 | 25.81129 | -97.04249 | 33815 ft | 439 kts | 196° |
| 2026-05-06 20:24 | 25.75106 | -97.05583 | 33813 ft | 440 kts | 196° |
| 2026-05-06 20:24 | 25.69136 | -97.06911 | 33815 ft | 440 kts | 196° |
| 2026-05-06 20:25 | 25.63119 | -97.08249 | 33806 ft | 440 kts | 196° |
| 2026-05-06 20:25 | 25.57076 | -97.09592 | 33808 ft | 441 kts | 196° |
| 2026-05-06 20:26 | 25.51047 | -97.10954 | 33805 ft | 440 kts | 196° |
| 2026-05-06 20:26 | 25.45077 | -97.12385 | 33801 ft | 440 kts | 197° |
| 2026-05-06 20:27 | 25.39056 | -97.13845 | 33797 ft | 441 kts | 197° |
| 2026-05-06 20:27 | 25.33087 | -97.15285 | 33789 ft | 440 kts | 197° |
| 2026-05-06 20:28 | 25.27090 | -97.16723 | 33793 ft | 440 kts | 196° |
| 2026-05-06 20:28 | 25.21065 | -97.18164 | 33788 ft | 441 kts | 196° |
| 2026-05-06 20:29 | 25.15089 | -97.19590 | 33785 ft | 440 kts | 196° |
| 2026-05-06 20:29 | 25.09082 | -97.21021 | 33791 ft | 441 kts | 196° |
| 2026-05-06 20:30 | 25.00041 | -97.23173 | 33792 ft | 442 kts | 196° |
| 2026-05-06 20:31 | 24.94017 | -97.24603 | 33791 ft | 442 kts | 196° |
| 2026-05-06 20:31 | 24.87968 | -97.26040 | 33786 ft | 442 kts | 196° |
| 2026-05-06 20:32 | 24.81953 | -97.27469 | 33780 ft | 442 kts | 196° |
| 2026-05-06 20:32 | 24.75957 | -97.28892 | 33773 ft | 442 kts | 196° |
| 2026-05-06 20:33 | 24.69924 | -97.30321 | 33771 ft | 442 kts | 196° |
| 2026-05-06 20:33 | 24.63884 | -97.31751 | 33769 ft | 443 kts | 196° |
| 2026-05-06 20:34 | 24.57816 | -97.33187 | 33771 ft | 443 kts | 196° |
| 2026-05-06 20:34 | 24.51803 | -97.34610 | 33764 ft | 444 kts | 196° |
| 2026-05-06 20:35 | 24.45767 | -97.36127 | 33769 ft | 442 kts | 197° |
| 2026-05-06 20:35 | 24.39768 | -97.37696 | 33768 ft | 442 kts | 197° |
| 2026-05-06 20:36 | 24.33800 | -97.39256 | 33770 ft | 442 kts | 197° |
| 2026-05-06 20:36 | 24.27760 | -97.40761 | 33766 ft | 443 kts | 195° |
| 2026-05-06 20:37 | 24.21699 | -97.42152 | 33764 ft | 443 kts | 195° |
| 2026-05-06 20:37 | 24.15665 | -97.43517 | 33767 ft | 445 kts | 195° |
| 2026-05-06 20:38 | 24.09592 | -97.44899 | 33760 ft | 444 kts | 195° |
| 2026-05-06 20:38 | 24.03515 | -97.46291 | 33766 ft | 445 kts | 195° |
| 2026-05-06 20:39 | 23.97444 | -97.47686 | 33764 ft | 445 kts | 195° |
| 2026-05-06 20:39 | 23.91358 | -97.49084 | 33761 ft | 445 kts | 195° |
| 2026-05-06 20:40 | 23.85275 | -97.50480 | 33760 ft | 444 kts | 195° |
| 2026-05-06 20:40 | 23.79219 | -97.51868 | 33755 ft | 444 kts | 195° |
| 2026-05-06 20:41 | 23.73172 | -97.53252 | 33759 ft | 445 kts | 195° |
| 2026-05-06 20:41 | 23.67074 | -97.54648 | 33753 ft | 445 kts | 195° |
| 2026-05-06 20:42 | 23.61030 | -97.56029 | 33752 ft | 445 kts | 195° |
| 2026-05-06 20:42 | 23.54934 | -97.57423 | 33745 ft | 445 kts | 195° |
| 2026-05-06 20:43 | 23.48834 | -97.58818 | 33748 ft | 445 kts | 195° |
| 2026-05-06 20:43 | 23.42761 | -97.60204 | 33752 ft | 445 kts | 195° |
| 2026-05-06 20:44 | 23.36692 | -97.61587 | 33750 ft | 446 kts | 195° |
| 2026-05-06 20:44 | 23.30585 | -97.62974 | 33750 ft | 445 kts | 194° |
| 2026-05-06 20:45 | 23.24525 | -97.64348 | 33748 ft | 445 kts | 195° |
| 2026-05-06 20:45 | 23.18400 | -97.65743 | 33747 ft | 445 kts | 194° |
| 2026-05-06 20:46 | 23.12349 | -97.67132 | 33748 ft | 445 kts | 194° |
| 2026-05-06 20:46 | 23.06253 | -97.68543 | 33747 ft | 446 kts | 194° |
| 2026-05-06 20:47 | 23.00154 | -97.69955 | 33745 ft | 446 kts | 194° |
| 2026-05-06 20:47 | 22.94091 | -97.71352 | 33741 ft | 447 kts | 194° |
| 2026-05-06 20:48 | 22.87981 | -97.72759 | 33737 ft | 447 kts | 194° |
| 2026-05-06 20:48 | 22.81879 | -97.74163 | 33731 ft | 447 kts | 194° |
| 2026-05-06 20:49 | 22.75748 | -97.75571 | 33732 ft | 446 kts | 194° |
| 2026-05-06 20:49 | 22.69686 | -97.76963 | 33734 ft | 446 kts | 194° |
| 2026-05-06 20:50 | 22.63593 | -97.78361 | 33732 ft | 446 kts | 194° |
| 2026-05-06 20:50 | 22.57486 | -97.79761 | 33725 ft | 447 kts | 194° |
| 2026-05-06 20:51 | 22.51346 | -97.81168 | 33731 ft | 448 kts | 194° |
| 2026-05-06 20:51 | 22.45214 | -97.82571 | 33715 ft | 449 kts | 194° |
| 2026-05-06 20:52 | 22.39121 | -97.83964 | 33714 ft | 448 kts | 194° |
| 2026-05-06 20:52 | 22.32989 | -97.85366 | 33713 ft | 448 kts | 194° |
| 2026-05-06 20:53 | 22.26826 | -97.86497 | 33715 ft | 449 kts | 188° |
| 2026-05-06 20:53 | 22.20551 | -97.86991 | 33710 ft | 450 kts | 185° |
| 2026-05-06 20:54 | 22.14246 | -97.87314 | 33710 ft | 451 kts | 185° |
| 2026-05-06 20:54 | 22.07963 | -97.87640 | 33698 ft | 451 kts | 185° |
| 2026-05-06 20:55 | 22.01675 | -97.87995 | 33689 ft | 452 kts | 185° |
| 2026-05-06 20:55 | 21.95369 | -97.88368 | 33686 ft | 453 kts | 185° |
| 2026-05-06 20:56 | 21.89064 | -97.88750 | 33691 ft | 451 kts | 185° |
| 2026-05-06 20:56 | 21.82797 | -97.89132 | 33690 ft | 451 kts | 185° |
| 2026-05-06 20:57 | 21.76479 | -97.89520 | 33692 ft | 451 kts | 185° |
| 2026-05-06 20:57 | 21.70194 | -97.89906 | 33692 ft | 452 kts | 185° |
| 2026-05-06 20:58 | 21.63925 | -97.90287 | 33695 ft | 451 kts | 185° |
| 2026-05-06 20:58 | 21.57641 | -97.90671 | 33692 ft | 452 kts | 185° |
| 2026-05-06 20:59 | 21.51324 | -97.91055 | 33697 ft | 452 kts | 185° |
| 2026-05-06 20:59 | 21.45013 | -97.91484 | 33694 ft | 453 kts | 187° |
| 2026-05-06 21:00 | 21.38797 | -97.92448 | 33706 ft | 450 kts | 192° |
| 2026-05-06 21:00 | 21.32616 | -97.93682 | 33709 ft | 449 kts | 192° |
| 2026-05-06 21:01 | 21.27395 | -97.94742 | 33713 ft | 450 kts | 192° |
| 2026-05-06 21:01 | 21.22318 | -97.95748 | 33720 ft | 450 kts | 192° |